Time;durP1;ratioP1;P1;durP2;ratioP2;P2;SDS_P1;SDS_P2;PMS_P1;PMS_P2;Temp;Humidity;BMP_temperature;BMP_pressure;BME280_temperature;BME280_humidity;BME280_pressure;Samples;Min_cycle;Max_cycle;Signal;HPM_P1;HPM_P2
2023/09/15 00:00:33;;;;;;;3.30;1.55;;;21.80;99.90;;;;;;5034202;28;20537;-36
2023/09/15 00:02:58;;;;;;;2.00;1.30;;;21.80;99.90;;;;;;5034218;28;20040;-36
2023/09/15 00:05:29;;;;;;;2.42;1.40;;;21.80;99.90;;;;;;5033935;28;20033;-36
2023/09/15 00:08:04;;;;;;;3.10;1.40;;;21.80;99.90;;;;;;5032674;28;20482;-36
2023/09/15 00:10:31;;;;;;;1.80;1.30;;;21.80;99.90;;;;;;5034046;28;20108;-36
2023/09/15 00:12:58;;;;;;;1.83;1.20;;;21.80;99.90;;;;;;5034196;28;20390;-36
2023/09/15 00:15:24;;;;;;;1.95;1.20;;;21.80;99.90;;;;;;5033747;28;20021;-36
2023/09/15 00:17:50;;;;;;;3.10;1.50;;;21.80;99.90;;;;;;5033957;28;20029;-36
2023/09/15 00:20:16;;;;;;;2.75;1.50;;;21.70;99.90;;;;;;5033840;28;20109;-36
2023/09/15 00:22:49;;;;;;;1.83;1.35;;;21.80;99.90;;;;;;5033824;28;20044;-36
2023/09/15 00:25:28;;;;;;;3.53;1.52;;;21.70;99.90;;;;;;5033585;28;20057;-36
2023/09/15 00:27:56;;;;;;;3.45;1.27;;;21.70;99.90;;;;;;5033589;28;20409;-36
2023/09/15 00:30:23;;;;;;;3.13;1.38;;;21.70;99.90;;;;;;5033675;28;20020;-36
2023/09/15 00:32:49;;;;;;;3.13;1.10;;;21.70;99.90;;;;;;5033554;28;20431;-36
2023/09/15 00:35:16;;;;;;;2.10;1.27;;;21.70;99.90;;;;;;5033294;28;20025;-36
2023/09/15 00:37:43;;;;;;;4.85;1.20;;;21.70;99.90;;;;;;5033323;28;20533;-36
2023/09/15 00:40:10;;;;;;;1.77;1.45;;;21.70;99.90;;;;;;5033512;28;20035;-36
2023/09/15 00:42:37;;;;;;;2.13;1.30;;;21.70;99.90;;;;;;5033431;28;20033;-36
2023/09/15 00:45:04;;;;;;;3.40;1.63;;;21.70;99.90;;;;;;5033245;28;20030;-36
2023/09/15 00:47:34;;;;;;;3.88;1.80;;;21.70;99.90;;;;;;5033126;28;20398;-36
2023/09/15 00:50:05;;;;;;;3.17;1.30;;;21.70;99.90;;;;;;5033223;28;20071;-36
2023/09/15 00:52:33;;;;;;;2.08;1.27;;;21.70;99.90;;;;;;5015518;28;20076;-36
2023/09/15 00:54:59;;;;;;;3.80;1.40;;;21.70;99.90;;;;;;5033052;28;20025;-36
2023/09/15 00:57:25;;;;;;;3.63;1.20;;;21.70;99.90;;;;;;5033012;28;20104;-36
2023/09/15 00:59:52;;;;;;;3.17;1.40;;;21.70;99.90;;;;;;5033099;28;20029;-36
2023/09/15 01:02:18;;;;;;;4.30;1.52;;;21.60;99.90;;;;;;5033032;28;20029;-36
2023/09/15 01:04:44;;;;;;;3.13;1.50;;;21.70;99.90;;;;;;5032763;28;20100;-36
2023/09/15 01:07:10;;;;;;;3.78;1.25;;;21.60;99.90;;;;;;5032982;28;20079;-36
2023/09/15 01:09:36;;;;;;;2.83;1.17;;;21.60;99.90;;;;;;5032894;28;20475;-36
2023/09/15 01:12:04;;;;;;;3.60;1.20;;;21.70;99.90;;;;;;5033146;28;20036;-36
2023/09/15 01:14:30;;;;;;;2.92;1.40;;;21.60;99.90;;;;;;5032729;28;20097;-36
2023/09/15 01:17:04;;;;;;;2.08;1.30;;;21.60;99.90;;;;;;5032560;28;20109;-36
2023/09/15 01:20:00;;;;;;;4.50;1.40;;;21.60;99.90;;;;;;5032315;28;20086;-36
2023/09/15 01:23:14;;;;;;;1.98;1.20;;;21.60;99.90;;;;;;5032746;28;20025;-36
2023/09/15 01:26:09;;;;;;;1.65;1.27;;;21.60;99.90;;;;;;4932845;29;20031;-36
2023/09/15 01:28:48;;;;;;;3.20;1.17;;;21.60;99.90;;;;;;4995714;28;20495;-36
2023/09/15 01:31:17;;;;;;;2.75;1.40;;;21.60;99.90;;;;;;5032466;28;20018;-36
2023/09/15 01:33:43;;;;;;;1.65;1.30;;;21.60;99.90;;;;;;5032333;28;20025;-36
2023/09/15 01:36:09;;;;;;;2.20;1.10;;;21.60;99.90;;;;;;5032104;28;20029;-36
2023/09/15 01:38:34;;;;;;;2.00;1.20;;;21.60;99.90;;;;;;5032426;28;20030;-36
2023/09/15 01:41:00;;;;;;;1.60;1.13;;;21.60;99.90;;;;;;5032587;28;20025;-36
2023/09/15 01:43:25;;;;;;;4.03;1.35;;;21.60;99.90;;;;;;5032275;28;20028;-36
2023/09/15 01:45:51;;;;;;;1.67;1.25;;;21.60;99.90;;;;;;5032060;28;20026;-36
2023/09/15 01:48:17;;;;;;;4.70;1.40;;;21.60;99.90;;;;;;5031881;28;20456;-36
2023/09/15 01:50:43;;;;;;;2.20;1.40;;;21.60;99.90;;;;;;5032151;28;20076;-37
2023/09/15 01:53:09;;;;;;;2.35;1.30;;;21.60;99.90;;;;;;5032265;28;20025;-36
2023/09/15 01:55:36;;;;;;;2.08;1.40;;;21.60;99.90;;;;;;5031907;28;20021;-36
2023/09/15 01:58:01;;;;;;;1.70;1.40;;;21.60;99.90;;;;;;5032029;28;20025;-36
2023/09/15 02:00:35;;;;;;;2.50;1.20;;;21.60;99.90;;;;;;5032018;28;20029;-36
2023/09/15 02:03:00;;;;;;;2.90;1.20;;;21.50;99.90;;;;;;5031872;28;20033;-36
2023/09/15 02:05:26;;;;;;;2.50;1.58;;;21.50;99.90;;;;;;5031680;28;20021;-36
2023/09/15 02:07:52;;;;;;;1.88;1.20;;;21.60;99.90;;;;;;5031853;28;20129;-36
2023/09/15 02:10:17;;;;;;;2.40;1.33;;;21.50;99.90;;;;;;5031816;28;20159;-36
2023/09/15 02:12:43;;;;;;;3.60;1.35;;;21.50;99.90;;;;;;5031716;28;20049;-36
2023/09/15 02:15:09;;;;;;;2.17;1.50;;;21.50;99.90;;;;;;5031579;28;20474;-36
2023/09/15 02:17:34;;;;;;;3.00;1.00;;;21.50;99.90;;;;;;5031386;28;20040;-36
2023/09/15 02:20:00;;;;;;;2.92;1.27;;;21.50;99.90;;;;;;5031820;28;20025;-36
2023/09/15 02:22:26;;;;;;;1.80;1.10;;;21.50;99.90;;;;;;5031617;28;20391;-36
2023/09/15 02:24:52;;;;;;;1.63;1.23;;;21.50;99.90;;;;;;5031458;28;20036;-37
2023/09/15 02:27:17;;;;;;;5.43;1.50;;;21.50;99.90;;;;;;5031335;28;20022;-36
2023/09/15 02:29:43;;;;;;;2.88;1.42;;;21.50;99.90;;;;;;5031536;28;20486;-36
2023/09/15 02:32:09;;;;;;;1.50;1.20;;;21.50;99.90;;;;;;5030638;28;20021;-36
2023/09/15 02:34:34;;;;;;;3.05;1.42;;;21.50;99.90;;;;;;5031381;28;20032;-36
2023/09/15 02:37:00;;;;;;;1.60;1.10;;;21.50;99.90;;;;;;5031172;28;20413;-36
2023/09/15 02:39:25;;;;;;;2.35;1.40;;;21.50;99.90;;;;;;5031420;28;20104;-36
2023/09/15 02:41:51;;;;;;;2.92;1.33;;;21.50;99.90;;;;;;5031378;28;20026;-36
2023/09/15 02:44:16;;;;;;;2.30;1.30;;;21.50;99.90;;;;;;5031282;28;20410;-36
2023/09/15 02:46:42;;;;;;;1.52;1.23;;;21.50;99.90;;;;;;5030929;28;20371;-36
2023/09/15 02:49:08;;;;;;;1.40;1.10;;;21.50;99.90;;;;;;5031303;28;20083;-36
2023/09/15 02:51:34;;;;;;;3.15;1.23;;;21.50;99.90;;;;;;5031379;28;20529;-36
2023/09/15 02:54:00;;;;;;;1.73;1.20;;;21.50;99.90;;;;;;5031218;28;20022;-36
2023/09/15 02:56:25;;;;;;;3.33;1.30;;;21.50;99.90;;;;;;5030994;28;20028;-36
2023/09/15 02:58:51;;;;;;;3.08;1.00;;;21.50;99.90;;;;;;5031184;28;20053;-36
2023/09/15 03:01:17;;;;;;;2.78;1.33;;;21.50;99.90;;;;;;5031013;28;20026;-36
2023/09/15 03:03:43;;;;;;;1.83;1.20;;;21.50;99.90;;;;;;5031140;28;20022;-36
2023/09/15 03:06:09;;;;;;;2.47;1.30;;;21.50;99.90;;;;;;5030840;28;20029;-36
2023/09/15 03:08:36;;;;;;;3.63;1.30;;;21.40;99.90;;;;;;5031215;28;20033;-36
2023/09/15 03:11:02;;;;;;;1.95;1.20;;;21.40;99.90;;;;;;5031108;28;20068;-36
2023/09/15 03:13:27;;;;;;;3.05;1.20;;;21.40;99.90;;;;;;5031100;28;20026;-36
2023/09/15 03:15:53;;;;;;;1.60;1.20;;;21.40;99.90;;;;;;5030745;28;20021;-36
2023/09/15 03:18:19;;;;;;;1.90;1.30;;;21.40;99.90;;;;;;5031195;28;20482;-36
2023/09/15 03:20:44;;;;;;;2.53;1.30;;;21.40;99.90;;;;;;5031182;28;20058;-36
2023/09/15 03:23:10;;;;;;;2.22;1.33;;;21.40;99.90;;;;;;5030980;28;20532;-36
2023/09/15 03:25:36;;;;;;;1.80;1.20;;;21.40;99.90;;;;;;5030745;28;20505;-36
2023/09/15 03:28:01;;;;;;;1.85;1.08;;;21.40;99.90;;;;;;5013129;28;20112;-36
2023/09/15 03:30:27;;;;;;;1.48;1.10;;;21.40;99.90;;;;;;5030783;28;20036;-36
2023/09/15 03:32:53;;;;;;;2.30;1.30;;;21.40;99.90;;;;;;5030900;28;20474;-36
2023/09/15 03:35:20;;;;;;;3.95;1.40;;;21.40;99.90;;;;;;5030666;28;20386;-36
2023/09/15 03:37:46;;;;;;;2.45;1.30;;;21.40;99.90;;;;;;5069820;22;20457;-40
2023/09/15 03:40:12;;;;;;;1.60;1.20;;;21.40;99.90;;;;;;5030619;28;20052;-38
2023/09/15 03:42:38;;;;;;;1.45;1.23;;;21.40;99.90;;;;;;5031965;28;20443;-37
2023/09/15 03:45:07;;;;;;;2.42;1.60;;;21.40;99.90;;;;;;5034440;28;20108;-38
2023/09/15 03:47:32;;;;;;;2.67;1.42;;;21.40;99.90;;;;;;5034321;28;20021;-36
2023/09/15 03:49:58;;;;;;;3.35;1.10;;;21.40;99.90;;;;;;5034492;28;20380;-37
2023/09/15 03:52:24;;;;;;;4.65;1.23;;;21.40;99.90;;;;;;5034434;28;20105;-37
2023/09/15 03:54:50;;;;;;;2.13;1.30;;;21.40;99.90;;;;;;5032946;28;20430;-37
2023/09/15 03:57:15;;;;;;;2.35;1.40;;;21.30;99.90;;;;;;5034075;28;20401;-38
2023/09/15 03:59:41;;;;;;;2.50;1.25;;;21.40;99.90;;;;;;5034407;28;20652;-37
2023/09/15 04:02:07;;;;;;;1.85;1.15;;;21.40;99.90;;;;;;5034223;28;20502;-36
2023/09/15 04:04:32;;;;;;;2.30;1.20;;;21.30;99.90;;;;;;5034126;28;20069;-39
2023/09/15 04:06:58;;;;;;;4.35;1.15;;;21.40;99.90;;;;;;5033867;28;20075;-39
2023/09/15 04:09:27;;;;;;;3.65;1.40;;;21.30;99.90;;;;;;5034081;28;20490;-39
2023/09/15 04:11:54;;;;;;;1.70;1.27;;;21.30;99.90;;;;;;5033881;28;20060;-39
2023/09/15 04:14:19;;;;;;;2.13;1.13;;;21.30;99.90;;;;;;5033900;28;20040;-38
2023/09/15 04:16:45;;;;;;;1.95;1.27;;;21.40;99.90;;;;;;5033703;28;20025;-39
2023/09/15 04:19:11;;;;;;;2.42;1.63;;;21.30;99.90;;;;;;5033943;28;20025;-39
2023/09/15 04:21:38;;;;;;;3.70;1.50;;;21.30;99.90;;;;;;5033854;28;20478;-38
2023/09/15 04:24:05;;;;;;;1.83;1.20;;;21.30;99.90;;;;;;5033779;28;20025;-39
2023/09/15 04:26:31;;;;;;;2.35;1.23;;;21.30;99.90;;;;;;5033397;28;20067;-39
2023/09/15 04:28:58;;;;;;;1.55;1.10;;;21.30;99.90;;;;;;5033688;28;20021;-38
2023/09/15 04:31:24;;;;;;;2.67;1.30;;;21.30;99.90;;;;;;5033817;28;20037;-36
2023/09/15 04:33:49;;;;;;;1.70;1.08;;;21.30;99.90;;;;;;5033586;28;20529;-36
2023/09/15 04:36:16;;;;;;;2.45;1.27;;;21.30;99.90;;;;;;5033250;28;20040;-37
2023/09/15 04:38:42;;;;;;;4.45;1.40;;;21.30;99.90;;;;;;5034021;28;20026;-36
2023/09/15 04:41:08;;;;;;;1.60;1.20;;;21.30;99.90;;;;;;5033421;28;20096;-36
2023/09/15 04:43:33;;;;;;;1.65;1.30;;;21.30;99.90;;;;;;5033434;28;20105;-37
2023/09/15 04:45:59;;;;;;;5.05;1.40;;;21.20;99.90;;;;;;5033204;28;20034;-36
2023/09/15 04:48:25;;;;;;;2.00;1.38;;;21.20;99.90;;;;;;5033261;28;20040;-36
2023/09/15 04:50:50;;;;;;;3.22;1.30;;;21.30;99.90;;;;;;5033313;28;20018;-36
2023/09/15 04:53:16;;;;;;;2.03;1.38;;;21.20;99.90;;;;;;5033167;28;20022;-36
2023/09/15 04:55:42;;;;;;;1.95;1.30;;;21.20;99.90;;;;;;5032322;28;20575;-36
2023/09/15 04:58:07;;;;;;;1.40;1.00;;;21.30;99.90;;;;;;5033223;28;20040;-36
2023/09/15 05:00:34;;;;;;;2.30;1.40;;;21.30;99.90;;;;;;5033253;28;20098;-36
2023/09/15 05:03:03;;;;;;;2.20;1.20;;;21.30;99.90;;;;;;5033118;28;20487;-36
2023/09/15 05:05:29;;;;;;;1.30;1.00;;;21.20;99.90;;;;;;5032854;28;20109;-37
2023/09/15 05:07:56;;;;;;;2.17;1.17;;;21.30;99.90;;;;;;5032833;28;20068;-37
2023/09/15 05:10:22;;;;;;;1.83;1.27;;;21.20;99.90;;;;;;5032892;28;20029;-36
2023/09/15 05:12:48;;;;;;;2.28;1.55;;;21.20;99.90;;;;;;5032892;28;20021;-37
2023/09/15 05:15:13;;;;;;;2.25;1.35;;;21.20;99.90;;;;;;5032671;28;20028;-37
2023/09/15 05:17:40;;;;;;;2.05;1.30;;;21.30;99.90;;;;;;5032711;28;20100;-40
2023/09/15 05:20:06;;;;;;;2.33;1.45;;;21.20;99.90;;;;;;5032848;28;20110;-37
2023/09/15 05:22:32;;;;;;;2.40;1.25;;;21.20;99.90;;;;;;5033196;28;20057;-36
2023/09/15 05:24:58;;;;;;;2.45;1.33;;;21.20;99.90;;;;;;5032475;28;20560;-36
2023/09/15 05:27:23;;;;;;;1.90;1.35;;;21.20;99.90;;;;;;5032349;28;20033;-37
2023/09/15 05:29:50;;;;;;;2.67;1.42;;;21.20;99.90;;;;;;5032584;28;20071;-37
2023/09/15 05:32:16;;;;;;;2.00;1.27;;;21.20;99.90;;;;;;5032548;28;20075;-37
2023/09/15 05:34:42;;;;;;;1.65;1.20;;;21.20;99.90;;;;;;5032403;28;20025;-36
2023/09/15 05:37:07;;;;;;;1.52;1.25;;;21.20;99.90;;;;;;5032113;28;20041;-37
2023/09/15 05:39:33;;;;;;;2.38;1.30;;;21.20;99.90;;;;;;5032385;28;20500;-36
2023/09/15 05:42:00;;;;;;;2.58;1.50;;;21.20;99.90;;;;;;5032354;28;20030;-37
2023/09/15 05:44:26;;;;;;;1.45;1.10;;;21.20;99.90;;;;;;5032143;28;20426;-38
2023/09/15 05:46:52;;;;;;;1.75;1.08;;;21.10;99.90;;;;;;5032047;28;20076;-37
2023/09/15 05:49:18;;;;;;;3.65;1.30;;;21.20;99.90;;;;;;5032245;28;20453;-39
2023/09/15 05:51:43;;;;;;;1.90;1.30;;;21.10;99.90;;;;;;5032106;28;20017;-36
2023/09/15 05:54:09;;;;;;;2.00;1.42;;;21.10;99.90;;;;;;5032145;28;20194;-36
2023/09/15 05:56:35;;;;;;;2.13;1.45;;;21.20;99.90;;;;;;5031934;28;20025;-36
2023/09/15 05:59:01;;;;;;;2.90;1.17;;;21.20;99.90;;;;;;5032010;28;20072;-37
2023/09/15 06:01:26;;;;;;;2.25;1.40;;;21.20;99.90;;;;;;5032063;28;20022;-36
2023/09/15 06:03:52;;;;;;;2.08;1.50;;;21.20;99.90;;;;;;5031979;28;20025;-37
2023/09/15 06:06:18;;;;;;;1.70;1.38;;;21.20;99.90;;;;;;5032055;28;20036;-36
2023/09/15 06:08:44;;;;;;;2.05;1.50;;;21.20;99.90;;;;;;5031849;28;20022;-36
2023/09/15 06:11:09;;;;;;;2.25;1.27;;;21.20;99.90;;;;;;5031756;28;20027;-38
2023/09/15 06:13:36;;;;;;;2.90;1.33;;;21.20;99.90;;;;;;5031894;28;20033;-38
2023/09/15 06:16:04;;;;;;;1.60;1.15;;;21.20;99.90;;;;;;5031587;28;20049;-37
2023/09/15 06:18:30;;;;;;;2.40;1.63;;;21.20;99.90;;;;;;5031620;28;20036;-38
2023/09/15 06:20:56;;;;;;;1.80;1.27;;;21.20;99.90;;;;;;5031495;28;20036;-39
2023/09/15 06:23:22;;;;;;;4.35;1.33;;;21.20;99.90;;;;;;5031681;28;20029;-36
2023/09/15 06:25:48;;;;;;;1.85;1.20;;;21.20;99.90;;;;;;5031437;28;20097;-37
2023/09/15 06:28:14;;;;;;;2.95;1.30;;;21.20;99.90;;;;;;5031446;28;20029;-37
2023/09/15 06:30:40;;;;;;;3.22;1.30;;;21.20;99.90;;;;;;5031606;28;20513;-37
2023/09/15 06:33:06;;;;;;;2.72;1.65;;;21.20;99.90;;;;;;5031583;28;20093;-36
2023/09/15 06:35:31;;;;;;;2.45;1.42;;;21.30;99.90;;;;;;5031230;28;20029;-37
2023/09/15 06:37:57;;;;;;;1.70;1.20;;;21.20;99.90;;;;;;5031286;28;20037;-38
2023/09/15 06:40:23;;;;;;;3.15;1.30;;;21.20;99.90;;;;;;5031470;28;20104;-36
2023/09/15 06:42:48;;;;;;;2.17;1.20;;;21.20;99.90;;;;;;5031369;28;20026;-40
2023/09/15 06:45:14;;;;;;;2.22;1.20;;;21.30;99.90;;;;;;5031251;28;20026;-37
2023/09/15 06:47:40;;;;;;;1.80;1.30;;;21.30;99.90;;;;;;5031261;28;20076;-38
2023/09/15 06:50:06;;;;;;;2.08;1.27;;;21.30;99.90;;;;;;5031133;28;20033;-38
2023/09/15 06:52:32;;;;;;;2.28;1.20;;;21.30;99.90;;;;;;5031281;28;20030;-37
2023/09/15 06:54:57;;;;;;;2.20;1.50;;;21.30;99.90;;;;;;5031143;28;20030;-38
2023/09/15 06:57:23;;;;;;;2.42;1.40;;;21.30;99.90;;;;;;5031089;28;20022;-36
2023/09/15 06:59:49;;;;;;;3.15;1.05;;;21.30;99.90;;;;;;5031293;28;20041;-37
2023/09/15 07:02:14;;;;;;;2.67;1.15;;;21.40;99.90;;;;;;5031223;28;20044;-38
2023/09/15 07:04:43;;;;;;;1.88;1.10;;;21.40;99.90;;;;;;5013271;28;20383;-38
2023/09/15 07:07:09;;;;;;;5.75;1.40;;;21.40;99.90;;;;;;5031225;28;20026;-38
2023/09/15 07:09:34;;;;;;;2.97;1.25;;;21.40;99.90;;;;;;5031402;28;20022;-37
2023/09/15 07:12:00;;;;;;;1.73;1.30;;;21.40;99.90;;;;;;5031094;28;20096;-39
2023/09/15 07:14:25;;;;;;;1.65;1.10;;;21.40;99.90;;;;;;5031041;28;20386;-37
2023/09/15 07:16:51;;;;;;;1.33;1.17;;;21.40;99.90;;;;;;5031354;28;20111;-38
2023/09/15 07:19:17;;;;;;;1.77;1.20;;;21.40;99.90;;;;;;5034987;28;20029;-38
2023/09/15 07:21:44;;;;;;;1.10;0.98;;;21.40;99.90;;;;;;5034973;28;20029;-37
2023/09/15 07:24:09;;;;;;;2.13;1.17;;;21.40;99.90;;;;;;5035088;28;20454;-38
2023/09/15 07:26:35;;;;;;;1.30;1.10;;;21.40;99.90;;;;;;5034549;28;20036;-38
2023/09/15 07:29:01;;;;;;;1.52;1.30;;;21.40;99.90;;;;;;5034848;28;20028;-37
2023/09/15 07:31:27;;;;;;;8.02;2.45;;;21.40;99.90;;;;;;5034636;28;20056;-39
2023/09/15 07:33:53;;;;;;;5.80;2.38;;;21.40;99.90;;;;;;5034678;28;20056;-39
2023/09/15 07:36:19;;;;;;;3.58;2.15;;;21.20;99.90;;;;;;5034398;28;20026;-40
2023/09/15 07:38:46;;;;;;;3.67;2.22;;;20.90;99.90;;;;;;5034685;28;20129;-40
2023/09/15 07:41:12;;;;;;;5.03;1.98;;;20.90;99.90;;;;;;5034587;28;20032;-40
2023/09/15 07:43:38;;;;;;;6.53;3.60;;;20.90;99.90;;;;;;5034559;28;20056;-41
2023/09/15 07:46:05;;;;;;;5.53;3.42;;;20.90;99.90;;;;;;5034333;28;20057;-39
2023/09/15 07:48:31;;;;;;;5.40;2.85;;;;;;;;;;5034264;28;20017;-40
2023/09/15 07:50:57;;;;;;;7.85;3.17;;;20.60;99.90;;;;;;5034421;28;20077;-39
2023/09/15 07:53:23;;;;;;;7.07;2.97;;;20.50;99.90;;;;;;5034429;28;20156;-39
2023/09/15 07:55:48;;;;;;;6.63;2.80;;;20.60;99.90;;;;;;5034140;28;20050;-38
2023/09/15 07:58:14;;;;;;;6.35;2.70;;;20.70;99.90;;;;;;5034261;28;20040;-39
2023/09/15 08:00:40;;;;;;;4.65;2.60;;;20.80;99.90;;;;;;5034211;28;20109;-39
2023/09/15 08:03:05;;;;;;;4.47;2.53;;;20.90;99.90;;;;;;5034106;28;20025;-39
2023/09/15 08:05:31;;;;;;;4.05;2.40;;;21.00;99.90;;;;;;5033982;28;20470;-39
2023/09/15 08:07:57;;;;;;;3.92;2.40;;;21.10;99.90;;;;;;5034035;28;20033;-39
2023/09/15 08:10:23;;;;;;;6.53;2.30;;;21.20;99.90;;;;;;5034042;28;20470;-39
2023/09/15 08:12:52;;;;;;;3.90;2.10;;;21.20;99.90;;;;;;5034038;28;20514;-43
2023/09/15 08:15:21;;;;;;;5.90;2.20;;;21.30;99.90;;;;;;5033808;28;20029;-43
2023/09/15 08:17:48;;;;;;;5.22;2.33;;;21.40;99.90;;;;;;5033832;28;20025;-42
2023/09/15 08:20:14;;;;;;;5.60;2.25;;;21.40;99.90;;;;;;5033913;28;20499;-40
2023/09/15 08:22:40;;;;;;;3.58;2.25;;;21.50;99.90;;;;;;5034011;28;20037;-39
2023/09/15 08:25:10;;;;;;;4.88;2.22;;;21.50;99.90;;;;;;5033989;28;20118;-38
2023/09/15 08:27:37;;;;;;;4.47;2.13;;;21.50;99.90;;;;;;5033714;28;20105;-38
2023/09/15 08:30:03;;;;;;;4.00;2.10;;;21.60;99.90;;;;;;5032538;28;20021;-39
2023/09/15 08:32:31;;;;;;;2.83;2.17;;;21.60;99.90;;;;;;5033647;28;20025;-38
2023/09/15 08:34:57;;;;;;;3.53;2.42;;;21.60;99.90;;;;;;5033496;28;20052;-41
2023/09/15 08:37:23;;;;;;;2.95;1.95;;;21.70;99.90;;;;;;5033329;28;20080;-38
2023/09/15 08:39:49;;;;;;;3.42;2.13;;;21.70;99.90;;;;;;5033444;28;20029;-39
2023/09/15 08:42:28;;;;;;;3.70;2.20;;;21.80;99.90;;;;;;5033868;28;20033;-38
2023/09/15 08:44:54;;;;;;;2.58;2.10;;;21.80;99.90;;;;;;5033292;28;20026;-40
2023/09/15 08:47:20;;;;;;;2.75;1.80;;;21.80;99.90;;;;;;5033256;28;20022;-39
2023/09/15 08:49:49;;;;;;;3.13;1.77;;;21.80;99.90;;;;;;5033629;28;20028;-39
2023/09/15 08:52:16;;;;;;;8.45;2.10;;;21.80;99.90;;;;;;5033254;28;20551;-40
2023/09/15 08:54:42;;;;;;;8.10;4.53;;;21.90;99.90;;;;;;5033010;28;20026;-41
2023/09/15 08:57:08;;;;;;;5.57;4.00;;;21.60;99.90;;;;;;5032937;28;20388;-42
2023/09/15 08:59:36;;;;;;;3.75;3.38;;;21.60;99.90;;;;;;5033116;28;20051;-39
2023/09/15 09:02:02;;;;;;;7.47;3.20;;;21.60;99.90;;;;;;5033052;28;20033;-38
2023/09/15 09:04:28;;;;;;;4.93;2.78;;;21.70;99.90;;;;;;5033108;28;20028;-38
2023/09/15 09:06:54;;;;;;;5.25;3.00;;;21.80;99.90;;;;;;5032825;28;20037;-39
2023/09/15 09:09:23;;;;;;;5.47;2.92;;;21.90;99.90;;;;;;5032949;28;20387;-40
2023/09/15 09:11:49;;;;;;;6.05;4.35;;;21.90;99.90;;;;;;5032801;28;20032;-39
2023/09/15 09:14:15;;;;;;;10.80;3.95;;;21.90;99.90;;;;;;5033053;28;20406;-39
2023/09/15 09:16:42;;;;;;;8.70;4.53;;;21.80;99.90;;;;;;5032669;28;20033;-39
2023/09/15 09:19:10;;;;;;;6.10;4.30;;;21.80;99.90;;;;;;5032824;28;20481;-40
2023/09/15 09:21:36;;;;;;;8.13;4.50;;;21.80;99.90;;;;;;5032744;28;20021;-40
2023/09/15 09:24:02;;;;;;;10.65;4.57;;;21.80;99.90;;;;;;5032608;28;20030;-40
2023/09/15 09:26:28;;;;;;;9.10;4.60;;;21.80;99.90;;;;;;5032234;28;20113;-42
2023/09/15 09:28:59;;;;;;;14.40;5.28;;;21.70;99.90;;;;;;5032866;28;20052;-40
2023/09/15 09:31:26;;;;;;;10.98;4.32;;;21.80;99.90;;;;;;5032639;28;20025;-38
2023/09/15 09:33:52;;;;;;;7.28;4.30;;;21.80;99.90;;;;;;5032501;28;20067;-39
2023/09/15 09:36:18;;;;;;;7.82;4.57;;;21.80;99.90;;;;;;5032111;28;20498;-41
2023/09/15 09:38:55;;;;;;;7.47;4.38;;;21.80;99.90;;;;;;5047026;22;20133;-42
2023/09/15 09:41:24;;;;;;;6.13;4.35;;;21.80;99.90;;;;;;5032161;28;20029;-41
2023/09/15 09:43:50;;;;;;;7.35;4.72;;;21.90;99.90;;;;;;5032293;28;20028;-43
2023/09/15 09:46:22;;;;;;;6.15;3.72;;;22.00;99.90;;;;;;5032073;28;20038;-41
2023/09/15 09:48:50;;;;;;;5.68;3.70;;;21.90;99.90;;;;;;5032257;28;20022;-39
2023/09/15 09:51:17;;;;;;;3.90;3.50;;;22.10;99.90;;;;;;5030837;28;20056;-40
2023/09/15 09:53:42;;;;;;;5.22;3.85;;;22.10;99.90;;;;;;5032118;28;20463;-40
2023/09/15 09:56:08;;;;;;;7.88;4.03;;;22.10;99.90;;;;;;5032004;28;20044;-39
2023/09/15 09:58:36;;;;;;;5.75;3.80;;;22.30;99.90;;;;;;5032037;28;20033;-40
2023/09/15 10:01:04;;;;;;;7.32;4.30;;;22.30;99.90;;;;;;5032074;28;20079;-40
2023/09/15 10:03:30;;;;;;;4.03;3.20;;;22.40;99.90;;;;;;5032036;28;20029;-39
2023/09/15 10:05:56;;;;;;;3.80;3.22;;;22.40;99.90;;;;;;5031689;28;20032;-40
2023/09/15 10:08:22;;;;;;;6.40;3.22;;;22.40;99.90;;;;;;5032314;28;20032;-39
2023/09/15 10:10:49;;;;;;;3.65;3.03;;;22.40;99.90;;;;;;5031868;28;20544;-39
2023/09/15 10:13:16;;;;;;;3.90;2.85;;;22.40;99.90;;;;;;5031949;28;20025;-40
2023/09/15 10:15:42;;;;;;;3.05;2.75;;;22.40;99.90;;;;;;5031633;28;20474;-39
2023/09/15 10:18:14;;;;;;;3.85;2.90;;;22.40;99.90;;;;;;5031740;28;20037;-39
2023/09/15 10:20:44;;;;;;;3.20;2.88;;;22.40;99.90;;;;;;5031639;28;20029;-40
2023/09/15 10:23:15;;;;;;;3.42;3.05;;;22.40;99.90;;;;;;5031644;28;20056;-39
2023/09/15 10:25:45;;;;;;;2.85;2.63;;;22.40;99.90;;;;;;5030188;28;20029;-39
2023/09/15 10:28:11;;;;;;;4.85;2.97;;;22.40;99.90;;;;;;5031450;28;20514;-43
2023/09/15 10:30:41;;;;;;;3.10;2.72;;;22.40;99.90;;;;;;5031628;28;20025;-43
2023/09/15 10:33:10;;;;;;;5.20;2.78;;;22.40;99.90;;;;;;5031483;28;20029;-40
2023/09/15 10:35:45;;;;;;;3.53;2.55;;;22.40;99.90;;;;;;5031429;28;20024;-41
2023/09/15 10:38:11;;;;;;;3.60;2.80;;;22.40;99.90;;;;;;5031311;28;20044;-39
2023/09/15 10:40:49;;;;;;;3.78;2.63;;;22.40;99.90;;;;;;5031397;28;20029;-40
2023/09/15 10:43:17;;;;;;;2.53;2.30;;;22.40;99.90;;;;;;5031394;28;20021;-42
2023/09/15 10:46:03;;;;;;;4.85;2.67;;;22.40;99.90;;;;;;5031168;28;20021;-39
2023/09/15 10:48:46;;;;;;;4.82;2.88;;;22.40;99.90;;;;;;5031251;28;20040;-41
2023/09/15 10:51:16;;;;;;;3.42;2.65;;;22.40;99.90;;;;;;5031317;28;20018;-40
2023/09/15 10:53:46;;;;;;;4.88;3.03;;;22.40;99.90;;;;;;5030775;28;20025;-41
2023/09/15 10:56:14;;;;;;;3.85;2.63;;;22.40;99.90;;;;;;5031304;28;20516;-40
2023/09/15 10:58:41;;;;;;;2.63;2.33;;;22.50;99.90;;;;;;5031281;28;20102;-39
2023/09/15 11:01:09;;;;;;;2.97;2.20;;;22.40;99.90;;;;;;5031217;28;20033;-38
2023/09/15 11:03:36;;;;;;;3.35;2.60;;;22.40;99.90;;;;;;5031246;28;20026;-39
2023/09/15 11:06:05;;;;;;;3.13;2.35;;;22.50;99.90;;;;;;5030920;28;20026;-41
2023/09/15 11:08:31;;;;;;;3.10;2.50;;;22.50;99.90;;;;;;5030949;28;20116;-38
2023/09/15 11:11:07;;;;;;;3.25;2.65;;;22.50;99.90;;;;;;5031145;28;20103;-45
2023/09/15 11:13:33;;;;;;;3.30;2.65;;;22.50;99.90;;;;;;5031148;28;20021;-42
2023/09/15 11:15:59;;;;;;;2.72;2.38;;;22.50;99.90;;;;;;5031033;28;20486;-45
2023/09/15 11:18:26;;;;;;;2.83;2.40;;;22.50;99.90;;;;;;5031010;28;20033;-44
2023/09/15 11:20:52;;;;;;;3.10;2.47;;;22.50;99.90;;;;;;5030921;28;20033;-42
2023/09/15 11:23:18;;;;;;;2.58;2.28;;;22.50;99.90;;;;;;5030979;28;20037;-39
2023/09/15 11:25:46;;;;;;;3.03;2.55;;;22.50;99.90;;;;;;5030824;28;20099;-42
2023/09/15 11:28:14;;;;;;;3.05;2.40;;;22.50;99.90;;;;;;5030860;28;20041;-40
2023/09/15 11:30:41;;;;;;;3.58;2.60;;;22.50;99.90;;;;;;5031017;28;20018;-38
2023/09/15 11:33:07;;;;;;;2.55;2.35;;;22.50;99.90;;;;;;5031021;28;20022;-44
2023/09/15 11:35:34;;;;;;;2.63;2.33;;;22.50;99.90;;;;;;5030620;28;20101;-39
2023/09/15 11:38:02;;;;;;;3.17;2.42;;;22.50;99.90;;;;;;5030872;28;20033;-44
2023/09/15 11:40:28;;;;;;;3.08;2.20;;;22.50;99.90;;;;;;5013171;28;20083;-39
2023/09/15 11:43:00;;;;;;;2.17;1.98;;;22.50;99.90;;;;;;5030879;28;20029;-38
2023/09/15 11:45:28;;;;;;;3.08;2.25;;;22.50;99.90;;;;;;5030645;28;20033;-38
2023/09/15 11:47:59;;;;;;;2.53;2.30;;;22.50;99.90;;;;;;5030628;28;20033;-44
2023/09/15 11:50:25;;;;;;;4.20;2.47;;;22.50;99.90;;;;;;5030713;28;20026;-41
2023/09/15 11:52:51;;;;;;;2.92;2.30;;;22.60;99.90;;;;;;5030757;28;20450;-41
2023/09/15 11:55:22;;;;;;;2.30;2.03;;;22.60;99.90;;;;;;5030571;28;20025;-41
2023/09/15 11:57:50;;;;;;;4.25;2.08;;;22.60;99.90;;;;;;5030848;28;20037;-43
2023/09/15 12:00:21;;;;;;;5.18;2.30;;;22.60;99.90;;;;;;5030712;28;20021;-43
2023/09/15 12:02:48;;;;;;;2.40;2.10;;;22.60;99.90;;;;;;5030664;28;20453;-41
2023/09/15 12:05:15;;;;;;;2.53;2.30;;;22.60;99.90;;;;;;5033940;28;20394;-43
2023/09/15 12:07:45;;;;;;;2.72;2.00;;;22.60;99.90;;;;;;5034104;28;20217;-46
2023/09/15 12:10:21;;;;;;;2.70;2.05;;;22.60;99.90;;;;;;5034191;28;20026;-37
2023/09/15 12:12:46;;;;;;;2.55;2.20;;;22.60;99.90;;;;;;5034130;28;20065;-39
2023/09/15 12:15:16;;;;;;;3.03;2.35;;;22.60;99.90;;;;;;5033751;28;20104;-41
2023/09/15 12:17:45;;;;;;;2.97;2.50;;;22.60;99.90;;;;;;5034100;28;20376;-40
2023/09/15 12:20:12;;;;;;;2.70;2.22;;;22.60;99.90;;;;;;5033952;28;20029;-39
2023/09/15 12:22:41;;;;;;;2.45;2.08;;;22.60;99.90;;;;;;5033929;28;20028;-42
2023/09/15 12:25:10;;;;;;;2.20;2.00;;;22.60;99.90;;;;;;5034115;28;20025;-45
2023/09/15 12:27:39;;;;;;;3.58;2.40;;;22.60;99.90;;;;;;5033565;28;20022;-43
2023/09/15 12:30:05;;;;;;;3.40;2.47;;;22.60;99.90;;;;;;5033811;28;20029;-42
2023/09/15 12:32:32;;;;;;;2.10;1.90;;;22.60;99.90;;;;;;5033892;28;20031;-40
2023/09/15 12:34:58;;;;;;;3.13;2.25;;;22.60;99.90;;;;;;5033833;28;20052;-41
2023/09/15 12:37:27;;;;;;;4.43;2.38;;;22.60;99.90;;;;;;5033422;28;20068;-41
2023/09/15 12:39:53;;;;;;;2.50;2.08;;;22.60;99.90;;;;;;5033657;28;20032;-45
2023/09/15 12:42:19;;;;;;;2.75;2.20;;;22.60;99.90;;;;;;5033407;28;20030;-44
2023/09/15 12:44:45;;;;;;;2.97;2.20;;;22.60;99.90;;;;;;5033395;28;20433;-42
2023/09/15 12:47:11;;;;;;;2.35;2.00;;;22.60;99.90;;;;;;5033275;28;20039;-43